Time;durP1;ratioP1;P1;durP2;ratioP2;P2;SDS_P1;SDS_P2;PMS_P1;PMS_P2;Temp;Humidity;BMP_temperature;BMP_pressure;BME280_temperature;BME280_humidity;BME280_pressure;Samples;Min_cycle;Max_cycle;Signal;HPM_P1;HPM_P2
2023/01/29 00:00:12;;;;;;;12.70;8.70;;;;;;;14.67;48.62;100890.00;5111620;28;20036;-56
2023/01/29 00:02:41;;;;;;;13.73;9.43;;;;;;;14.68;48.81;100899.78;5111685;28;20127;-54
2023/01/29 00:05:09;;;;;;;12.40;8.98;;;;;;;14.64;48.75;100898.25;5111683;28;20116;-55
2023/01/29 00:07:56;;;;;;;12.70;8.98;;;;;;;14.60;48.70;100911.03;5111684;28;20521;-57
2023/01/29 00:10:26;;;;;;;13.57;9.23;;;;;;;14.57;48.88;100911.25;5111405;28;20483;-56
2023/01/29 00:12:54;;;;;;;14.02;9.20;;;;;;;14.55;48.87;100917.66;5113025;28;20055;-57
2023/01/29 00:15:22;;;;;;;12.45;8.32;;;;;;;14.51;48.79;100908.09;5115727;28;20051;-56
2023/01/29 00:17:50;;;;;;;13.98;9.23;;;;;;;14.48;48.91;100914.53;5115916;27;20124;-55
2023/01/29 00:20:19;;;;;;;14.00;9.00;;;;;;;14.46;48.93;100924.47;5115646;28;20043;-56
2023/01/29 00:22:47;;;;;;;13.68;9.30;;;;;;;14.43;48.86;100918.44;5115614;28;20050;-55
2023/01/29 00:25:17;;;;;;;14.35;9.27;;;;;;;14.39;48.83;100916.94;5115463;28;20100;-56
2023/01/29 00:27:45;;;;;;;14.10;9.13;;;;;;;14.38;48.84;100925.91;5115370;28;20047;-54
2023/01/29 00:30:17;;;;;;;14.85;9.38;;;;;;;14.36;48.76;100922.47;5115349;28;20434;-57
2023/01/29 00:32:47;;;;;;;13.68;8.80;;;;;;;14.31;48.85;100920.09;5115457;28;20093;-55
2023/01/29 00:35:15;;;;;;;13.40;8.88;;;;;;;14.28;49.00;100926.53;5115291;28;20126;-56
2023/01/29 00:37:43;;;;;;;14.27;9.10;;;;;;;14.26;48.91;100931.13;5115318;28;20043;-55
2023/01/29 00:40:12;;;;;;;14.27;9.43;;;;;;;14.20;48.84;100928.00;5115210;28;20051;-53
2023/01/29 00:45:44;;;;;;;14.18;9.45;;;;;;;14.18;48.95;100929.88;5051960;28;20102;-55
2023/01/29 00:48:12;;;;;;;13.93;9.20;;;;;;;14.15;48.79;100930.09;5052251;28;20526;-55
2023/01/29 00:50:40;;;;;;;13.20;9.35;;;;;;;14.08;48.91;100934.13;5080670;28;20358;-55
2023/01/29 00:53:09;;;;;;;14.93;9.38;;;;;;;14.10;48.93;100938.44;5115362;28;20043;-53
2023/01/29 00:55:37;;;;;;;13.15;8.73;;;;;;;14.09;48.84;100946.56;5115012;28;20050;-56
2023/01/29 00:58:06;;;;;;;14.43;10.02;;;;;;;14.04;48.94;100947.75;5114943;28;20048;-55
2023/01/29 01:00:34;;;;;;;14.20;9.75;;;;;;;14.03;48.93;100945.16;5114812;28;20051;-56
2023/01/29 01:03:05;;;;;;;14.13;9.05;;;;;;;13.96;48.89;100930.41;5114738;28;20476;-55
2023/01/29 01:05:33;;;;;;;12.80;8.10;;;;;;;13.97;48.78;100942.84;5114679;28;20430;-54
2023/01/29 01:08:01;;;;;;;11.63;8.15;;;;;;;13.95;48.79;100939.41;5114852;28;20044;-55
2023/01/29 01:10:31;;;;;;;15.38;9.68;;;;;;;13.91;48.90;100937.91;5114480;28;20052;-57
2023/01/29 01:13:01;;;;;;;14.23;9.68;;;;;;;13.90;48.98;100936.19;5114738;28;20531;-58
2023/01/29 01:15:34;;;;;;;13.93;9.27;;;;;;;13.88;48.93;100944.28;5114616;28;20059;-58
2023/01/29 01:18:03;;;;;;;13.43;9.23;;;;;;;13.86;48.79;100937.31;5114585;28;20048;-55
2023/01/29 01:20:34;;;;;;;13.38;8.98;;;;;;;13.82;48.90;100943.84;5114540;28;20305;-55
2023/01/29 01:23:03;;;;;;;13.43;8.93;;;;;;;13.81;48.93;100947.47;5113981;28;20043;-55
2023/01/29 01:25:31;;;;;;;14.23;9.27;;;;;;;13.78;48.93;100951.19;5114607;28;20434;-54
2023/01/29 01:27:59;;;;;;;14.20;9.55;;;;;;;13.76;48.98;100950.44;5114275;28;20514;-56
2023/01/29 01:30:27;;;;;;;13.60;9.00;;;;;;;13.72;48.89;100949.78;5114247;28;20511;-54
2023/01/29 01:32:57;;;;;;;12.55;8.45;;;;;;;13.72;49.06;100955.13;5114294;28;20386;-55
2023/01/29 01:35:25;;;;;;;14.18;8.90;;;;;;;13.70;48.99;100956.16;5114042;28;20498;-54
2023/01/29 01:37:54;;;;;;;14.50;9.23;;;;;;;13.68;49.07;100953.59;5114131;28;20401;-55
2023/01/29 01:40:23;;;;;;;13.80;9.27;;;;;;;13.65;48.92;100953.78;5114105;28;20053;-55
2023/01/29 01:42:53;;;;;;;13.75;9.38;;;;;;;13.64;49.04;100951.19;5113945;28;20155;-55
2023/01/29 01:45:25;;;;;;;14.10;8.73;;;;;;;13.61;48.85;100957.63;5113846;28;20047;-55
2023/01/29 01:47:59;;;;;;;14.43;9.00;;;;;;;13.58;49.08;100960.47;5113862;28;20119;-57
2023/01/29 01:50:34;;;;;;;14.48;9.20;;;;;;;13.55;49.04;100960.66;5113963;28;20048;-55
2023/01/29 01:53:06;;;;;;;12.70;8.82;;;;;;;13.53;49.03;100959.91;5113803;28;20047;-58
2023/01/29 01:55:41;;;;;;;14.60;9.63;;;;;;;13.50;49.07;100960.06;5113739;28;20425;-53
2023/01/29 01:58:15;;;;;;;13.68;8.77;;;;;;;13.48;48.92;100950.41;5113708;28;20377;-57
2023/01/29 02:00:43;;;;;;;12.38;8.32;;;;;;;13.46;48.78;100958.56;5113735;28;20047;-56
2023/01/29 02:11:38;;;;;;;14.88;8.90;;;;;;;13.37;48.85;100967.16;5113498;28;20446;-56
2023/01/29 02:14:07;;;;;;;13.30;9.07;;;;;;;13.35;49.00;100972.59;5113397;28;20409;-54
2023/01/29 02:16:36;;;;;;;14.65;9.23;;;;;;;13.34;48.79;100967.34;5113480;28;20215;-56
2023/01/29 02:19:11;;;;;;;13.93;9.32;;;;;;;13.26;48.71;100961.56;5113296;28;20047;-55
2023/01/29 02:22:06;;;;;;;14.18;9.85;;;;;;;13.27;48.77;100972.19;5113298;28;20051;-57
2023/01/29 02:25:08;;;;;;;13.98;9.48;;;;;;;13.25;48.68;100979.47;5113059;28;20050;-55
2023/01/29 02:28:10;;;;;;;13.98;8.60;;;;;;;13.20;48.81;100973.50;5113116;28;20051;-56
2023/01/29 02:30:49;;;;;;;14.85;9.23;;;;;;;13.21;48.88;100980.59;5107085;28;20496;-57
2023/01/29 02:33:26;;;;;;;14.48;9.05;;;;;;;13.18;48.90;100986.97;5113121;28;20528;-54
2023/01/29 02:35:59;;;;;;;13.38;9.02;;;;;;;13.15;48.69;100973.75;5112216;28;20051;-55
2023/01/29 02:38:30;;;;;;;;;;;;;;;13.15;48.75;100986.28;5113479;28;20051;-58
2023/01/29 02:41:04;;;;;;;14.35;9.20;;;;;;;13.10;48.88;100986.56;5112948;28;20014;-56
2023/01/29 02:43:44;;;;;;;14.48;8.95;;;;;;;13.06;48.92;100979.66;5112782;28;20044;-56
2023/01/29 02:46:19;;;;;;;14.45;8.82;;;;;;;13.09;48.70;100992.00;5112866;28;20100;-57
2023/01/29 02:48:57;;;;;;;15.23;9.52;;;;;;;13.06;48.75;100990.38;5112764;28;20045;-54
2023/01/29 02:51:32;;;;;;;14.10;9.35;;;;;;;13.04;48.71;100994.97;5112720;28;20051;-55
2023/01/29 02:54:05;;;;;;;16.13;9.63;;;;;;;13.02;48.91;100994.16;5112680;28;20101;-55
2023/01/29 02:56:40;;;;;;;14.68;8.98;;;;;;;12.99;48.66;101002.41;5112660;28;20054;-57
2023/01/29 02:59:16;;;;;;;13.20;8.77;;;;;;;12.99;49.01;101007.75;5112799;28;20043;-57
2023/01/29 03:01:50;;;;;;;14.00;9.05;;;;;;;12.98;48.86;101006.03;5112524;28;20067;-57
2023/01/29 03:04:20;;;;;;;;;;;;;;;12.94;48.93;101004.50;5112860;28;20541;-56
2023/01/29 03:06:53;;;;;;;13.55;8.38;;;;;;;12.92;48.86;101001.00;5112769;28;20257;-55
2023/01/29 03:09:28;;;;;;;15.23;9.17;;;;;;;12.92;48.97;101005.50;5112263;28;20135;-56
2023/01/29 03:12:17;;;;;;;13.65;8.35;;;;;;;12.90;48.72;101008.28;5112482;28;20039;-54
2023/01/29 03:17:41;;;;;;;14.20;8.07;;;;;;;12.84;48.70;101003.31;5112222;28;20176;-56
2023/01/29 03:20:16;;;;;;;15.35;8.48;;;;;;;12.84;48.57;101011.34;5112236;28;20112;-57
2023/01/29 03:22:51;;;;;;;13.60;8.57;;;;;;;12.83;48.90;101009.56;5112243;28;20052;-54
2023/01/29 03:33:54;;;;;;;14.73;8.93;;;;;;;12.74;48.76;101018.13;5111980;28;20054;-58
2023/01/29 03:36:37;;;;;;;12.80;8.15;;;;;;;12.73;48.80;101024.44;5112008;28;20047;-55
2023/01/29 03:39:08;;;;;;;14.10;9.27;;;;;;;12.73;48.81;101029.78;5112044;28;20047;-54
2023/01/29 03:41:46;;;;;;;13.07;8.45;;;;;;;12.69;48.79;101023.75;5111975;28;20040;-57
2023/01/29 03:44:20;;;;;;;13.60;8.50;;;;;;;12.69;48.78;101025.56;5111979;28;20043;-56
2023/01/29 03:46:56;;;;;;;14.93;8.88;;;;;;;12.67;48.67;101035.50;5111781;28;20096;-55
2023/01/29 03:49:34;;;;;;;13.95;8.80;;;;;;;12.66;48.86;101033.78;5111836;28;20396;-54
2023/01/29 03:52:08;;;;;;;12.80;8.48;;;;;;;12.62;48.67;101030.41;5111702;28;20493;-55
2023/01/29 03:54:45;;;;;;;14.38;8.85;;;;;;;12.59;48.85;101028.78;5111463;28;20567;-54
2023/01/29 03:57:22;;;;;;;14.30;8.45;;;;;;;12.60;48.73;101025.16;5111859;28;20043;-55
2023/01/29 04:00:03;;;;;;;13.73;8.20;;;;;;;12.58;48.86;101024.38;5111720;28;20048;-54
2023/01/29 04:02:38;;;;;;;12.35;8.55;;;;;;;12.54;48.71;101016.59;5111672;28;20050;-54
2023/01/29 04:05:13;;;;;;;12.77;8.13;;;;;;;12.56;48.82;101026.28;5111610;28;20461;-57
2023/01/29 04:07:44;;;;;;;12.07;7.47;;;;;;;12.53;48.85;101015.72;5111558;28;20050;-54
2023/01/29 04:10:17;;;;;;;12.60;7.93;;;;;;;12.52;48.74;101018.50;5111469;28;20079;-56
2023/01/29 04:12:52;;;;;;;13.15;8.25;;;;;;;12.50;48.82;101015.03;5111784;28;20131;-56
2023/01/29 04:15:24;;;;;;;12.20;7.82;;;;;;;12.50;48.80;101021.25;5111628;28;20470;-56
2023/01/29 04:17:56;;;;;;;13.38;8.20;;;;;;;12.47;48.90;101026.78;5111716;28;20040;-54
2023/01/29 04:20:25;;;;;;;13.43;8.50;;;;;;;12.47;48.65;101023.25;5111513;28;20092;-55
2023/01/29 04:22:53;;;;;;;11.07;7.25;;;;;;;12.45;48.91;101023.34;5111482;28;20288;-54
2023/01/29 04:25:27;;;;;;;13.18;8.20;;;;;;;12.44;49.00;101026.06;5111514;28;20451;-54
2023/01/29 04:28:05;;;;;;;11.48;7.65;;;;;;;12.39;48.89;101018.31;5111282;28;20067;-55
2023/01/29 04:30:45;;;;;;;13.15;8.32;;;;;;;12.41;48.79;101016.41;5111485;28;20075;-56
2023/01/29 04:33:31;;;;;;;12.27;8.30;;;;;;;12.39;48.85;101012.09;5111621;28;20485;-55
2023/01/29 04:36:13;;;;;;;12.02;7.43;;;;;;;12.39;48.42;101018.31;5111371;28;20047;-56
2023/01/29 04:38:54;;;;;;;14.05;8.40;;;;;;;12.37;49.01;101014.00;5111356;28;20055;-56
2023/01/29 04:41:25;;;;;;;11.45;7.50;;;;;;;12.39;48.80;101023.69;5111366;28;20043;-56
2023/01/29 04:44:00;;;;;;;12.23;7.45;;;;;;;12.45;49.34;101026.03;5111459;28;20425;-55
2023/01/29 04:46:35;;;;;;;12.15;7.60;;;;;;;12.53;49.70;101021.06;5111396;28;20481;-57
2023/01/29 04:49:18;;;;;;;11.82;7.82;;;;;;;12.63;49.93;101023.22;5111156;28;20104;-54
2023/01/29 04:51:56;;;;;;;11.95;7.40;;;;;;;12.72;49.91;101017.38;5111316;28;20401;-55
2023/01/29 04:54:34;;;;;;;12.35;7.53;;;;;;;12.84;49.54;101019.38;5111414;28;20480;-56
2023/01/29 04:57:09;;;;;;;11.65;6.95;;;;;;;12.93;49.51;101026.84;5111301;28;20100;-56
2023/01/29 04:59:42;;;;;;;12.38;7.00;;;;;;;13.06;49.67;101033.22;5113717;28;20035;-56
2023/01/29 05:02:12;;;;;;;12.07;7.75;;;;;;;13.15;49.44;101021.97;5114869;28;20040;-56
2023/01/29 05:04:45;;;;;;;10.52;6.70;;;;;;;13.27;49.39;101023.09;5114892;28;20043;-56
2023/01/29 05:07:19;;;;;;;10.70;6.72;;;;;;;13.36;49.39;101017.19;5114196;28;20203;-57
2023/01/29 05:09:48;;;;;;;10.93;7.15;;;;;;;13.45;49.09;101016.66;5114661;28;20085;-57
2023/01/29 05:12:17;;;;;;;10.93;6.93;;;;;;;13.54;49.22;101015.25;5114828;28;20043;-57
2023/01/29 05:14:49;;;;;;;10.73;7.00;;;;;;;13.65;49.03;101019.94;5114955;28;20119;-56
2023/01/29 05:17:20;;;;;;;11.20;6.82;;;;;;;13.75;48.95;101023.78;5114691;28;20040;-56
2023/01/29 05:19:51;;;;;;;10.05;6.10;;;;;;;13.87;49.00;101022.16;5114706;28;20075;-56
2023/01/29 05:22:21;;;;;;;10.00;6.22;;;;;;;13.98;48.91;101011.63;5114534;28;20044;-55
2023/01/29 05:24:50;;;;;;;10.18;7.00;;;;;;;14.08;48.72;101020.81;5114584;28;20070;-57
2023/01/29 05:30:09;;;;;;;10.35;6.50;;;;;;;14.31;48.38;101011.34;5114438;28;20063;-57
2023/01/29 05:32:38;;;;;;;10.43;6.70;;;;;;;14.39;48.39;101017.09;5114338;28;20515;-57
2023/01/29 05:35:08;;;;;;;12.48;6.95;;;;;;;14.48;48.37;101015.69;5114249;28;20050;-56
2023/01/29 05:37:36;;;;;;;10.10;6.43;;;;;;;14.51;48.27;101007.41;5114312;28;20046;-57
2023/01/29 05:40:16;;;;;;;9.95;6.25;;;;;;;14.59;48.21;101014.00;5114289;28;20043;-56
2023/01/29 05:42:45;;;;;;;9.85;6.60;;;;;;;14.64;48.01;101012.84;5114271;28;20051;-55
2023/01/29 05:45:13;;;;;;;10.88;6.63;;;;;;;14.66;47.97;101014.47;5114619;28;20047;-57
2023/01/29 05:47:41;;;;;;;9.80;6.20;;;;;;;14.72;48.00;101016.75;5113983;28;20469;-57
2023/01/29 05:50:12;;;;;;;10.27;6.38;;;;;;;14.74;47.88;101009.44;5114005;28;20194;-57
2023/01/29 05:52:41;;;;;;;10.30;6.88;;;;;;;14.78;47.81;101021.72;5114004;28;20055;-57
2023/01/29 05:55:10;;;;;;;9.95;6.47;;;;;;;14.81;47.86;101016.16;5114044;28;20050;-58
2023/01/29 05:57:40;;;;;;;9.48;5.78;;;;;;;14.84;47.81;101020.44;5113976;28;20499;-56
2023/01/29 06:00:11;;;;;;;9.85;6.22;;;;;;;14.91;47.73;101020.91;5113796;28;20047;-58
2023/01/29 06:02:40;;;;;;;9.90;6.22;;;;;;;14.97;47.83;101023.22;5113810;28;20051;-55
2023/01/29 06:05:10;;;;;;;8.88;6.28;;;;;;;15.01;47.53;101019.34;5113692;28;20058;-56
2023/01/29 06:07:43;;;;;;;8.57;5.95;;;;;;;15.06;47.51;101022.59;5113541;28;20054;-55
2023/01/29 06:10:13;;;;;;;9.63;6.00;;;;;;;15.15;47.44;101024.66;5113499;28;20047;-56
2023/01/29 06:12:44;;;;;;;10.13;6.53;;;;;;;15.19;47.19;101031.56;5113619;28;20054;-55
2023/01/29 06:15:14;;;;;;;9.52;6.20;;;;;;;15.29;47.33;101031.78;5113993;28;20177;-55
2023/01/29 06:17:42;;;;;;;8.65;5.75;;;;;;;15.33;47.48;101039.53;5113403;28;20104;-56
2023/01/29 06:20:13;;;;;;;9.40;6.10;;;;;;;15.38;47.17;101048.16;5113369;28;20096;-55
2023/01/29 06:22:42;;;;;;;10.18;6.20;;;;;;;15.44;47.09;101047.75;5113349;28;20522;-53
2023/01/29 06:25:10;;;;;;;10.02;6.45;;;;;;;15.53;47.16;101046.25;5113304;28;20112;-52
2023/01/29 06:27:39;;;;;;;9.02;5.78;;;;;;;15.59;46.97;101050.34;5113307;28;20123;-56
2023/01/29 06:30:09;;;;;;;9.52;6.10;;;;;;;15.63;46.92;101049.19;5113399;28;20413;-55
2023/01/29 06:32:37;;;;;;;8.88;5.88;;;;;;;15.68;46.82;101056.00;5113211;28;20047;-54
2023/01/29 06:35:06;;;;;;;9.27;6.10;;;;;;;15.69;46.79;101068.47;5113223;28;20040;-55
2023/01/29 06:37:36;;;;;;;8.68;5.90;;;;;;;15.69;46.58;101067.63;5113082;28;20055;-55
2023/01/29 06:40:05;;;;;;;8.68;6.00;;;;;;;15.69;46.70;101073.00;5113041;28;20059;-53
2023/01/29 06:42:35;;;;;;;9.18;5.95;;;;;;;15.67;46.65;101085.69;5113184;28;20092;-56
2023/01/29 06:45:05;;;;;;;8.90;5.53;;;;;;;15.62;46.70;101077.91;5113051;28;20404;-54
2023/01/29 06:47:33;;;;;;;9.23;5.68;;;;;;;15.60;46.62;101082.53;5113011;28;20079;-55
2023/01/29 06:50:02;;;;;;;8.75;5.47;;;;;;;15.51;46.64;101075.06;5112658;28;20112;-53
2023/01/29 06:52:30;;;;;;;7.55;5.47;;;;;;;15.52;46.49;101084.00;5112856;28;20092;-55
2023/01/29 06:54:59;;;;;;;9.15;5.75;;;;;;;15.46;46.71;101088.84;5112748;28;20119;-55
2023/01/29 06:57:29;;;;;;;9.52;5.32;;;;;;;15.42;46.66;101081.94;5112826;28;20092;-55
2023/01/29 06:59:58;;;;;;;9.05;5.78;;;;;;;15.37;46.70;101084.06;5112624;28;20040;-54
2023/01/29 07:02:26;;;;;;;9.30;6.07;;;;;;;15.34;46.51;101089.63;5112559;28;20070;-55
2023/01/29 07:04:54;;;;;;;8.38;5.55;;;;;;;15.28;46.56;101082.00;5112387;28;20050;-57
2023/01/29 07:07:23;;;;;;;9.52;5.88;;;;;;;15.21;46.55;101079.81;5112581;28;20047;-54
2023/01/29 07:09:51;;;;;;;8.73;5.43;;;;;;;15.17;46.42;101081.88;5112251;28;20058;-55
2023/01/29 07:12:20;;;;;;;8.75;5.78;;;;;;;15.11;46.38;101077.75;5112658;28;20044;-55
2023/01/29 07:14:49;;;;;;;8.57;5.63;;;;;;;15.06;46.45;101079.03;5112696;28;20046;-55
2023/01/29 07:17:17;;;;;;;8.85;5.55;;;;;;;14.99;46.36;101088.44;5112394;28;20043;-55
2023/01/29 07:19:45;;;;;;;9.23;5.80;;;;;;;14.93;46.44;101080.78;5093886;28;20039;-55
2023/01/29 07:22:13;;;;;;;7.82;5.40;;;;;;;14.84;46.50;101068.78;5111921;28;20050;-55
2023/01/29 07:24:41;;;;;;;8.15;5.18;;;;;;;14.81;46.50;101064.50;5112431;28;20047;-55
2023/01/29 07:27:10;;;;;;;8.25;5.78;;;;;;;14.77;46.55;101073.72;5112343;28;20428;-54
2023/01/29 07:29:40;;;;;;;8.02;5.20;;;;;;;14.70;46.56;101067.03;5112170;28;20051;-54
2023/01/29 07:32:08;;;;;;;7.72;5.20;;;;;;;14.65;46.44;101062.88;5112179;28;20056;-56
2023/01/29 07:34:36;;;;;;;7.22;4.90;;;;;;;14.60;46.42;101066.75;5112037;28;20104;-53
2023/01/29 07:37:05;;;;;;;9.13;5.82;;;;;;;14.55;46.52;101062.63;5112192;28;20405;-55
2023/01/29 07:39:33;;;;;;;8.30;5.45;;;;;;;14.50;46.36;101059.38;5112286;28;20055;-55
2023/01/29 07:42:02;;;;;;;9.63;5.70;;;;;;;14.42;46.44;101046.41;5111956;28;20069;-55
2023/01/29 07:44:30;;;;;;;8.07;5.70;;;;;;;14.44;46.62;101054.34;5111890;28;20059;-55
2023/01/29 07:46:59;;;;;;;8.45;5.53;;;;;;;14.46;46.60;101055.16;5111902;28;20048;-55
2023/01/29 07:49:27;;;;;;;8.05;5.10;;;;;;;14.51;46.80;101050.38;5111824;28;20055;-53
2023/01/29 07:51:56;;;;;;;7.93;4.95;;;;;;;14.55;46.61;101049.19;5111930;28;20051;-56
2023/01/29 07:54:24;;;;;;;7.78;5.18;;;;;;;14.65;46.77;101066.44;5111833;28;20043;-55
2023/01/29 07:56:52;;;;;;;8.35;5.32;;;;;;;14.72;46.66;101066.91;5111935;28;20461;-57
2023/01/29 07:59:20;;;;;;;8.70;5.15;;;;;;;14.78;46.62;101058.47;5111739;28;20050;-57
2023/01/29 08:01:48;;;;;;;8.68;5.22;;;;;;;14.83;46.31;101059.88;5111840;28;20044;-56
2023/01/29 08:04:18;;;;;;;7.38;5.03;;;;;;;14.89;46.39;101062.19;5111873;28;20047;-55
2023/01/29 08:06:46;;;;;;;7.80;4.65;;;;;;;14.93;46.43;101065.50;5111886;28;20535;-56
2023/01/29 08:09:14;;;;;;;7.30;4.63;;;;;;;14.92;46.37;101062.94;5111505;28;20058;-56
2023/01/29 08:11:42;;;;;;;7.15;4.80;;;;;;;14.97;46.21;101068.88;5111763;28;20532;-56
2023/01/29 08:14:11;;;;;;;7.03;4.65;;;;;;;14.96;46.15;101072.50;5111837;28;20051;-55
2023/01/29 08:16:39;;;;;;;7.97;5.07;;;;;;;14.95;46.11;101065.41;5111623;28;20050;-55
2023/01/29 08:19:07;;;;;;;7.47;4.65;;;;;;;14.91;46.15;101066.59;5111604;28;20048;-55
2023/01/29 08:21:36;;;;;;;7.57;4.60;;;;;;;14.89;46.18;101075.59;5111538;28;20048;-54
2023/01/29 08:24:06;;;;;;;7.07;4.82;;;;;;;14.87;46.11;101072.16;5111510;28;20044;-55
2023/01/29 08:26:34;;;;;;;7.70;4.85;;;;;;;14.83;46.25;101073.31;5111482;28;20048;-54
2023/01/29 08:29:02;;;;;;;7.35;4.65;;;;;;;14.79;46.23;101073.63;5111507;28;20549;-55
2023/01/29 08:31:30;;;;;;;7.53;4.57;;;;;;;14.77;46.15;101080.91;5111604;28;20044;-54
2023/01/29 08:33:58;;;;;;;7.60;4.60;;;;;;;14.73;46.12;101082.91;5112899;28;20055;-55
2023/01/29 08:36:26;;;;;;;7.80;4.63;;;;;;;14.69;46.27;101081.41;5115383;28;20122;-56
2023/01/29 08:38:56;;;;;;;7.53;4.65;;;;;;;14.65;46.17;101087.06;5115387;28;20048;-56
2023/01/29 08:41:24;;;;;;;7.03;4.47;;;;;;;14.62;46.24;101095.31;5115261;28;20078;-54
2023/01/29 08:43:52;;;;;;;7.80;4.38;;;;;;;14.56;46.19;101099.25;5115345;28;20441;-56
2023/01/29 08:46:20;;;;;;;8.82;5.03;;;;;;;14.52;46.47;101095.03;5115428;28;20046;-56
2023/01/29 08:48:48;;;;;;;7.43;4.63;;;;;;;14.48;46.35;101099.75;5115154;28;20047;-58
2023/01/29 08:51:17;;;;;;;7.07;4.38;;;;;;;14.45;46.23;101104.44;5115046;28;20108;-54
2023/01/29 08:53:45;;;;;;;8.05;5.00;;;;;;;14.42;46.44;101123.38;5115057;28;20127;-55
2023/01/29 08:56:16;;;;;;;7.70;4.50;;;;;;;14.33;46.09;101112.25;5114977;28;20047;-52
2023/01/29 08:58:44;;;;;;;6.45;3.95;;;;;;;14.32;46.14;101115.91;5115068;28;20486;-54
2023/01/29 09:01:14;;;;;;;6.97;4.13;;;;;;;14.28;46.11;101119.75;5114919;28;20043;-55
2023/01/29 09:03:43;;;;;;;6.72;4.03;;;;;;;14.21;46.24;101115.72;5114950;28;20044;-53
2023/01/29 09:06:12;;;;;;;8.05;4.85;;;;;;;14.19;46.06;101120.31;5114822;28;20126;-54
2023/01/29 09:08:41;;;;;;;7.03;4.03;;;;;;;14.15;46.22;101118.75;5114612;28;20074;-54
2023/01/29 09:11:10;;;;;;;7.10;4.53;;;;;;;14.11;46.14;101130.66;5114742;28;20122;-54
2023/01/29 09:13:39;;;;;;;7.18;4.30;;;;;;;14.07;46.09;101131.78;5114754;28;20048;-55
2023/01/29 09:16:08;;;;;;;7.05;4.35;;;;;;;14.00;46.29;101130.44;5114659;28;20051;-56
2023/01/29 09:18:39;;;;;;;7.10;4.50;;;;;;;14.00;46.21;101120.56;5096573;28;20047;-57
2023/01/29 09:21:08;;;;;;;6.93;4.40;;;;;;;13.97;46.21;101122.56;5114564;28;20047;-54
2023/01/29 09:23:36;;;;;;;6.72;4.40;;;;;;;13.93;46.36;101131.75;5114702;28;20185;-57
2023/01/29 09:26:06;;;;;;;6.68;4.32;;;;;;;13.89;46.36;101132.88;5114514;28;20483;-55
2023/01/29 09:28:35;;;;;;;6.38;4.15;;;;;;;13.87;46.29;101126.75;5114433;28;20043;-54
2023/01/29 09:31:05;;;;;;;6.47;4.13;;;;;;;13.81;46.38;101132.50;5114181;28;20047;-54
2023/01/29 09:33:33;;;;;;;6.45;3.92;;;;;;;13.80;46.48;101133.44;5114393;28;20108;-54
2023/01/29 09:36:03;;;;;;;7.93;4.13;;;;;;;13.77;46.68;101133.63;5114170;28;20048;-54
2023/01/29 09:38:31;;;;;;;10.40;4.05;;;;;;;13.74;46.68;101135.53;5114320;28;20051;-52
2023/01/29 09:41:09;;;;;;;5.90;3.78;;;;;;;13.76;46.83;101138.13;5114305;28;20395;-54
2023/01/29 09:43:46;;;;;;;7.57;4.40;;;;;;;13.80;46.93;101133.44;5114143;28;20493;-55
2023/01/29 09:46:23;;;;;;;6.68;4.38;;;;;;;13.86;47.02;101141.97;5113853;28;20122;-55
2023/01/29 09:49:00;;;;;;;9.13;4.20;;;;;;;13.96;48.41;101139.59;5114237;28;20126;-55
2023/01/29 09:51:33;;;;;;;8.40;4.20;;;;;;;14.09;48.26;101142.41;5095614;28;20051;-60
2023/01/29 09:54:13;;;;;;;8.07;4.70;;;;;;;14.20;48.10;101143.50;5114035;28;20048;-54
2023/01/29 09:56:43;;;;;;;8.77;4.32;;;;;;;14.28;47.82;101130.47;5114039;28;20051;-58
2023/01/29 09:59:14;;;;;;;8.63;4.15;;;;;;;14.35;47.80;101124.72;5113978;28;20048;-56
2023/01/29 10:01:54;;;;;;;9.57;4.32;;;;;;;14.47;47.72;101134.72;5113853;28;20040;-54
2023/01/29 10:04:39;;;;;;;10.38;3.85;;;;;;;14.54;47.69;101130.69;5113892;28;20063;-55
2023/01/29 10:07:31;;;;;;;13.82;4.70;;;;;;;14.62;47.58;101136.44;5114133;28;20050;-56
2023/01/29 10:10:19;;;;;;;7.95;3.80;;;;;;;14.69;48.17;101129.75;5113484;28;20048;-58
2023/01/29 10:12:58;;;;;;;11.73;5.25;;;;;;;14.83;51.33;101135.09;5113573;28;20407;-58
2023/01/29 10:15:42;;;;;;;15.65;5.18;;;;;;;15.04;52.25;101146.25;5113511;28;20092;-54
2023/01/29 10:18:33;;;;;;;14.57;5.47;;;;;;;15.14;51.74;101146.53;5113687;28;20056;-56
2023/01/29 10:21:14;;;;;;;10.27;4.35;;;;;;;15.24;51.20;101141.41;5113505;28;20070;-56
2023/01/29 10:23:48;;;;;;;12.25;5.07;;;;;;;15.36;51.09;101135.25;5113419;28;20497;-57
2023/01/29 10:26:21;;;;;;;11.05;4.80;;;;;;;15.49;51.36;101125.41;5113346;28;20052;-55
2023/01/29 10:28:52;;;;;;;19.33;4.82;;;;;;;15.58;50.22;101134.69;5113452;28;20039;-57
2023/01/29 10:31:26;;;;;;;11.45;5.20;;;;;;;15.69;49.82;101132.16;5113477;28;20477;-55
2023/01/29 10:34:00;;;;;;;15.55;4.68;;;;;;;15.74;49.61;101121.97;5113244;28;20050;-57
2023/01/29 10:36:36;;;;;;;11.35;5.28;;;;;;;15.84;49.33;101133.81;5113125;28;20067;-56
2023/01/29 10:39:05;;;;;;;12.45;5.03;;;;;;;15.90;49.71;101129.84;5113005;28;20044;-56
2023/01/29 10:41:54;;;;;;;11.60;4.90;;;;;;;15.96;49.11;101137.50;5113111;28;20043;-57
2023/01/29 10:44:37;;;;;;;10.80;5.18;;;;;;;15.96;48.66;101126.75;5113017;28;20506;-56
2023/01/29 10:47:28;;;;;;;30.23;10.18;;;;;;;16.03;52.35;101126.22;5113046;28;20047;-52
2023/01/29 10:50:15;;;;;;;25.30;8.52;;;;;;;16.13;52.10;101120.19;5112832;28;20039;-57
2023/01/29 10:52:57;;;;;;;30.30;11.15;;;;;;;16.17;56.98;101109.09;5112837;28;20054;-55
2023/01/29 10:55:41;;;;;;;49.45;15.70;;;;;;;16.26;59.17;101110.28;5113016;28;20118;-56
2023/01/29 10:58:19;;;;;;;43.03;11.90;;;;;;;16.28;55.33;101103.81;5112961;28;20044;-55
2023/01/29 11:00:52;;;;;;;34.35;13.35;;;;;;;16.32;57.92;101104.47;5113039;28;20050;-57
2023/01/29 11:03:25;;;;;;;32.95;12.38;;;;;;;16.29;56.49;101091.22;5113072;28;20088;-56
2023/01/29 11:06:10;;;;;;;34.95;12.07;;;;;;;16.31;55.61;101092.00;5113056;28;20043;-57
2023/01/29 11:08:43;;;;;;;36.80;12.83;;;;;;;16.29;55.66;101097.47;5112729;28;20059;-54
2023/01/29 11:11:13;;;;;;;;;;;;;;;16.26;55.65;101099.50;5113150;28;20065;-55
2023/01/29 11:13:46;;;;;;;25.45;10.48;;;;;;;16.21;55.08;101097.16;5112695;28;19920;-56
2023/01/29 11:16:14;;;;;;;32.50;11.98;;;;;;;16.18;54.83;101096.50;5112931;28;20051;-55
2023/01/29 11:18:51;;;;;;;24.00;9.82;;;;;;;16.14;54.45;101085.09;5112677;28;20109;-57
2023/01/29 11:21:21;;;;;;;29.50;12.00;;;;;;;16.10;53.80;101072.81;5112741;28;20469;-57
2023/01/29 11:23:50;;;;;;;26.70;9.98;;;;;;;16.07;53.56;101072.16;5112640;28;20065;-56
2023/01/29 11:26:21;;;;;;;21.92;9.52;;;;;;;16.02;53.27;101078.75;5112530;28;20126;-57
2023/01/29 11:28:50;;;;;;;32.25;10.88;;;;;;;16.01;53.80;101070.75;5112439;28;20043;-58
2023/01/29 11:31:22;;;;;;;28.48;10.43;;;;;;;16.03;54.65;101069.72;5112471;28;20101;-58
2023/01/29 11:33:54;;;;;;;26.88;10.35;;;;;;;16.06;54.81;101060.53;5112447;28;20044;-58
2023/01/29 11:36:32;;;;;;;27.20;10.48;;;;;;;16.08;54.35;101052.34;5112499;28;20640;-55
2023/01/29 11:39:20;;;;;;;28.02;10.70;;;;;;;16.07;54.12;101047.94;5112334;28;20039;-57
2023/01/29 11:41:52;;;;;;;22.98;9.73;;;;;;;16.05;53.91;101055.28;5112495;28;20047;-55
2023/01/29 11:44:27;;;;;;;24.65;10.18;;;;;;;16.03;53.90;101039.25;5112389;28;20051;-55
2023/01/29 11:46:58;;;;;;;22.73;9.70;;;;;;;16.01;54.21;101042.03;5112387;28;20442;-54
2023/01/29 11:49:33;;;;;;;28.75;9.77;;;;;;;15.96;53.60;101037.94;5112365;28;20051;-55
2023/01/29 11:52:05;;;;;;;24.67;9.80;;;;;;;15.87;52.42;101009.84;5111867;28;20135;-56
2023/01/29 11:54:38;;;;;;;23.25;9.35;;;;;;;15.81;51.71;101025.56;5111681;28;20044;-55
2023/01/29 11:57:23;;;;;;;20.85;8.88;;;;;;;15.71;51.67;101023.50;5111844;28;20043;-56
2023/01/29 11:59:53;;;;;;;23.70;8.73;;;;;;;15.67;51.96;101015.78;5111920;28;20047;-57
2023/01/29 12:02:26;;;;;;;22.85;8.85;;;;;;;15.65;52.29;101023.09;5112079;28;20051;-55
2023/01/29 12:04:56;;;;;;;31.17;9.32;;;;;;;15.62;52.66;101017.91;5112325;28;20073;-54
2023/01/29 12:07:26;;;;;;;25.75;9.18;;;;;;;15.54;52.21;101017.53;5112804;28;20047;-55